Alba, Michigan
Current Conditions -  °F | °C
As of 7:59 AM on Thursday 30 Oct 2014 (Local Time) from KACB Reporting Station
Overcast Overcast  
Wind Chill: 39°   Ceiling: 3200
Heat Index: 39°   Visibility: 10mi
Dew Point: 36°   Wind: 0mph
Humidity: 87%   Direction: NA
Pressure: 30.09"   Gusts: NA
Location:  44.97°N, 84.97°W
Report Text: KACB 301159Z AUTO 00000KT 10SM OVC032 04/02 A3009 RMK AO2
Loading
Personal Weather Stations






























Interactive Weather Map
Tropical Storm Tracking
New forecast layout! Learn more

10-Day Weather Forecast

Advertisements
Track Severe Weather on mobile